Time;durP1;ratioP1;P1;durP2;ratioP2;P2;SDS_P1;SDS_P2;PMS_P1;PMS_P2;Temp;Humidity;BMP_temperature;BMP_pressure;BME280_temperature;BME280_humidity;BME280_pressure;Samples;Min_cycle;Max_cycle;Signal;HPM_P1;HPM_P2
2021/05/28 00:02:56;;;;;;;10.33;3.67;;;;;;;;;;13032526;22;20197;-77
2021/05/28 00:07:59;;;;;;;8.00;4.00;;;;;;;;;;13033171;22;20661;-78
2021/05/28 00:13:03;;;;;;;8.80;3.60;;;;;;;;;;13033470;22;20588;-80
2021/05/28 00:18:05;;;;;;;7.03;3.70;;;;;;;;;;13028092;22;20211;-79
2021/05/28 00:23:08;;;;;;;10.87;4.33;;;;;;;;;;13037460;22;20574;-78
2021/05/28 00:28:11;;;;;;;10.03;3.63;;;;;;;;;;13036378;22;20362;-78
2021/05/28 00:33:14;;;;;;;6.70;3.53;;;;;;;;;;13032817;22;20182;-77
2021/05/28 00:38:16;;;;;;;7.80;3.37;;;;;;;;;;13036128;22;20205;-78
2021/05/28 00:43:20;;;;;;;13.47;3.87;;;;;;;;;;13034172;22;20182;-77
2021/05/28 00:48:22;;;;;;;10.50;3.40;;;;;;;;;;13029433;22;20232;-77
2021/05/28 00:53:25;;;;;;;7.53;3.70;;;;;;;;;;13034091;22;20174;-77
2021/05/28 00:58:29;;;;;;;9.50;3.40;;;;;;;;;;13031451;22;20642;-77
2021/05/28 01:03:32;;;;;;;6.80;3.40;;;;;;;;;;13036376;22;20277;-79
2021/05/28 01:08:34;;;;;;;6.67;3.53;;;;;;;;;;13037941;22;20209;-77
2021/05/28 01:13:38;;;;;;;9.63;3.83;;;;;;;;;;13036696;22;20248;-78
2021/05/28 01:18:40;;;;;;;7.50;3.43;;;;;;;;;;13032980;22;20202;-79
2021/05/28 01:23:44;;;;;;;9.23;3.70;;;;;;;;;;13038779;22;20220;-79
2021/05/28 01:28:46;;;;;;;6.70;3.33;;;;;;;;;;13035037;22;20612;-77
2021/05/28 01:33:49;;;;;;;5.57;3.03;;;;;;;;;;13032397;22;20263;-77
2021/05/28 01:38:54;;;;;;;5.23;3.17;;;;;;;;;;13038600;22;20169;-77
2021/05/28 01:43:57;;;;;;;6.17;3.07;;;;;;;;;;13038245;22;20178;-78
2021/05/28 01:49:00;;;;;;;6.03;3.20;;;;;;;;;;13036226;22;20260;-77
2021/05/28 01:54:04;;;;;;;5.27;3.20;;;;;;;;;;13034673;22;20284;-77
2021/05/28 01:59:09;;;;;;;5.70;3.57;;;;;;;;;;13036838;22;20725;-77
2021/05/28 02:04:11;;;;;;;6.00;3.07;;;;;;;;;;13031611;22;20193;-77
2021/05/28 02:09:15;;;;;;;6.07;3.50;;;;;;;;;;13038170;22;20204;-77
2021/05/28 02:14:17;;;;;;;4.97;3.30;;;;;;;;;;13035143;22;20651;-77
2021/05/28 02:19:20;;;;;;;6.53;3.43;;;;;;;;;;13035345;22;20253;-77
2021/05/28 02:24:24;;;;;;;4.97;3.30;;;;;;;;;;13036924;22;20174;-77
2021/05/28 02:29:27;;;;;;;4.83;3.20;;;;;;;;;;13037274;22;20260;-77
2021/05/28 02:34:29;;;;;;;4.00;2.90;;;;;;;;;;13032116;22;20205;-78
2021/05/28 02:39:32;;;;;;;4.83;3.30;;;;;;;;;;13038284;22;20682;-78
2021/05/28 02:44:35;;;;;;;6.10;3.30;;;;;;;;;;13034018;22;20227;-77
2021/05/28 02:49:38;;;;;;;6.13;3.57;;;;;;;;;;13034308;22;20202;-78
2021/05/28 02:54:43;;;;;;;6.07;3.70;;;;;;;;;;13035868;22;20698;-78
2021/05/28 02:59:45;;;;;;;6.53;3.60;;;;;;;;;;13034903;22;20174;-78
2021/05/28 03:04:48;;;;;;;7.47;3.93;;;;;;;;;;13031364;22;20200;-77
2021/05/28 03:09:51;;;;;;;6.23;3.30;;;;;;;;;;13037139;22;20949;-78
2021/05/28 03:14:53;;;;;;;6.07;3.47;;;;;;;;;;13033296;22;20229;-78
2021/05/28 03:19:57;;;;;;;5.67;3.70;;;;;;;;;;13034271;22;20612;-78
2021/05/28 03:25:01;;;;;;;6.10;3.60;;;;;;;;;;13034679;22;20185;-78
2021/05/28 03:30:04;;;;;;;6.60;3.73;;;;;;;;;;13035831;22;20212;-78
2021/05/28 03:35:07;;;;;;;9.17;3.40;;;;;;;;;;13031709;22;20197;-78
2021/05/28 03:40:12;;;;;;;8.50;4.00;;;;;;;;;;13036564;22;20174;-77
2021/05/28 03:45:14;;;;;;;7.90;3.90;;;;;;;;;;13033436;22;20260;-78
2021/05/28 03:50:17;;;;;;;8.67;3.90;;;;;;;;;;13031694;22;20280;-78
2021/05/28 03:55:21;;;;;;;5.50;3.57;;;;;;;;;;13033759;22;20608;-78
2021/05/28 04:00:25;;;;;;;6.47;3.80;;;;;;;;;;13039176;22;20184;-78
2021/05/28 04:05:27;;;;;;;6.33;4.00;;;;;;;;;;13033127;22;20193;-79
2021/05/28 04:10:40;;;;;;;6.80;3.77;;;;;;;;;;13038449;22;20255;-77
2021/05/28 20:55:45;;;;;;;4.57;2.50;;;;;;;;;;12887286;22;20210;-85
2021/05/28 21:00:47;;;;;;;5.53;2.73;;;;;;;;;;12887255;23;20163;-85
2021/05/28 21:05:50;;;;;;;3.90;2.70;;;;;;;;;;12909729;23;20181;-85
2021/05/28 21:10:54;;;;;;;3.87;2.50;;;;;;;;;;12907417;23;20175;-84
2021/05/28 21:15:57;;;;;;;7.00;4.07;;;;;;;;;;12908154;23;20210;-84
2021/05/28 21:21:02;;;;;;;7.67;3.50;;;;;;;;;;12908337;23;20182;-85
2021/05/28 21:26:06;;;;;;;5.47;3.30;;;;;;;;;;12911193;23;20927;-84
2021/05/28 21:31:10;;;;;;;4.57;2.10;;;;;;;;;;12885829;23;20179;-84
2021/05/28 21:36:13;;;;;;;3.20;2.20;;;;;;;;;;12911093;23;20259;-85
2021/05/28 21:41:16;;;;;;;3.93;2.43;;;;;;;;;;12907254;23;20175;-85
2021/05/28 21:46:18;;;;;;;3.23;1.97;;;;;;;;;;12905427;23;20214;-86
2021/05/28 21:51:21;;;;;;;4.60;2.23;;;;;;;;;;12904497;22;20529;-85
2021/05/28 21:56:24;;;;;;;3.57;2.50;;;;;;;;;;12908633;23;20217;-85
2021/05/28 22:01:27;;;;;;;3.80;2.60;;;;;;;;;;12884584;23;20250;-85
2021/05/28 22:06:29;;;;;;;3.17;2.40;;;;;;;;;;12889362;23;20179;-85
2021/05/28 22:11:33;;;;;;;4.63;2.90;;;;;;;;;;12908046;23;20182;-86
2021/05/28 22:16:35;;;;;;;6.83;2.67;;;;;;;;;;12886928;23;20213;-85
2021/05/28 22:21:38;;;;;;;2.90;2.40;;;;;;;;;;12906258;23;20362;-84
2021/05/28 22:26:48;;;;;;;4.20;2.60;;;;;;;;;;12908077;23;20286;-83
2021/05/28 22:37:11;;;;;;;4.13;2.50;;;;;;;;;;12906975;23;20214;-84
2021/05/28 22:42:17;;;;;;;4.50;2.40;;;;;;;;;;12908108;23;20229;-85
2021/05/28 22:47:20;;;;;;;4.57;2.30;;;;;;;;;;12884762;23;20168;-85
2021/05/28 22:52:22;;;;;;;4.10;2.20;;;;;;;;;;12888361;22;20195;-85
2021/05/28 22:57:26;;;;;;;3.53;2.27;;;;;;;;;;12904895;23;20241;-84
2021/05/28 23:02:28;;;;;;;2.67;2.10;;;;;;;;;;12884979;23;20537;-83
2021/05/28 23:07:35;;;;;;;2.77;2.30;;;;;;;;;;12906371;23;20317;-85
2021/05/28 23:12:45;;;;;;;4.23;2.23;;;;;;;;;;12906965;23;20517;-84
2021/05/28 23:17:48;;;;;;;6.40;2.40;;;;;;;;;;12884070;23;20203;-84
2021/05/28 23:22:51;;;;;;;4.50;2.80;;;;;;;;;;12907415;23;20183;-85
2021/05/28 23:27:54;;;;;;;5.13;3.20;;;;;;;;;;12905545;23;20597;-84
2021/05/28 23:32:57;;;;;;;4.77;3.20;;;;;;;;;;12904580;23;20175;-84
2021/05/28 23:37:59;;;;;;;5.27;3.27;;;;;;;;;;12906824;23;20214;-85
2021/05/28 23:43:04;;;;;;;5.23;2.80;;;;;;;;;;12909402;22;20195;-85
2021/05/28 23:48:07;;;;;;;3.93;3.03;;;;;;;;;;12882727;23;20167;-84
2021/05/28 23:53:09;;;;;;;3.87;2.80;;;;;;;;;;12887542;22;20191;-84
2021/05/28 23:58:13;;;;;;;4.03;2.40;;;;;;;;;;12905217;23;20579;-83
